Time;durP1;ratioP1;P1;durP2;ratioP2;P2;SDS_P1;SDS_P2;PMS_P1;PMS_P2;Temp;Humidity;BMP_temperature;BMP_pressure;BME280_temperature;BME280_humidity;BME280_pressure;Samples;Min_cycle;Max_cycle;Signal;HPM_P1;HPM_P2
2023/04/21 00:00:54;;;;;;;;;;;;;;;;;;7365555;19;1246;-64
2023/04/21 00:03:23;;;;;;;;;;;;;;;;;;7366840;19;759;-64
2023/04/21 00:05:51;;;;;;;;;;;;;;;;;;7365068;19;1842;-64
2023/04/21 00:08:19;;;;;;;;;;;;;;;;;;7368673;19;1929;-63
2023/04/21 00:10:48;;;;;;;;;;;;;;;;;;7367413;19;1450;-64
2023/04/21 00:13:16;;;;;;;;;;;;;;;;;;7366244;19;1935;-61
2023/04/21 00:15:44;;;;;;;;;;;;;;;;;;7369976;19;2211;-62
2023/04/21 00:18:12;;;;;;;;;;;;;;;;;;7367707;19;1921;-63
2023/04/21 00:20:41;;;;;;;;;;;;;;;;;;7365394;19;1269;-63
2023/04/21 00:23:09;;;;;;;;;;;;;;;;;;7366474;19;896;-64
2023/04/21 00:25:37;;;;;;;;;;;;;;;;;;7365274;19;1838;-64
2023/04/21 00:28:06;;;;;;;;;;;;;;;;;;7369383;19;1914;-64
2023/04/21 00:30:34;;;;;;;;;;;;;;;;;;7364061;19;1282;-65
2023/04/21 00:33:02;;;;;;;;;;;;;;;;;;7366045;19;716;-65
2023/04/21 00:35:31;;;;;;;;;;;;;;;;;;7365787;19;762;-64
2023/04/21 00:37:59;;;;;;;;;;;;;;;;;;7366843;19;2243;-63
2023/04/21 00:40:27;;;;;;;;;;;;;;;;;;7364424;19;1285;-64
2023/04/21 00:42:55;;;;;;;;;;;;;;;;;;7369685;19;1936;-64
2023/04/21 00:45:24;;;;;;;;;;;;;;;;;;7364881;19;1827;-64
2023/04/21 00:47:52;;;;;;;;;;;;;;;;;;7368353;19;1980;-64
2023/04/21 00:50:20;;;;;;;;;;;;;;;;;;7365470;19;1356;-63
2023/04/21 00:52:48;;;;;;;;;;;;;;;;;;7364033;19;811;-64
2023/04/21 00:55:16;;;;;;;;;;;;;;;;;;7364922;19;835;-64
2023/04/21 00:57:45;;;;;;;;;;;;;;;;;;7366267;19;1994;-64
2023/04/21 01:00:13;;;;;;;;;;;;;;;;;;7364605;19;1275;-63
2023/04/21 01:02:41;;;;;;;;;;;;;;;;;;7365355;19;759;-63
2023/04/21 01:05:10;;;;;;;;;;;;;;;;;;7365159;19;1830;-63
2023/04/21 01:07:39;;;;;;;;;;;;;;;;;;7366889;19;1949;-64
2023/04/21 01:10:07;;;;;;;;;;;;;;;;;;7362962;19;1278;-63
2023/04/21 01:12:36;;;;;;;;;;;;;;;;;;7364971;19;883;-63
2023/04/21 01:15:04;;;;;;;;;;;;;;;;;;7364980;19;784;-64
2023/04/21 01:17:37;;;;;;;;;;;;;;;;;;7365148;19;1932;-64
2023/04/21 01:20:05;;;;;;;;;;;;;;;;;;7363587;19;1306;-64
2023/04/21 01:22:35;;;;;;;;;;;;;;;;;;7363402;19;740;-64
2023/04/21 01:25:03;;;;;;;;;;;;;;;;;;7364352;19;1845;-64
2023/04/21 01:27:31;;;;;;;;;;;;;;;;;;7366073;19;2248;-62
2023/04/21 01:29:59;;;;;;;;;;;;;;;;;;7372083;19;1955;-64
2023/04/21 01:32:29;;;;;;;;;;;;;;;;;;7370857;19;862;-65
2023/04/21 01:34:57;;;;;;;;;;;;;;;;;;7372734;19;1936;-64
2023/04/21 01:37:25;;;;;;;;;;;;;;;;;;7373398;19;1946;-65
2023/04/21 01:39:53;;;;;;;;;;;;;;;;;;7368986;19;824;-64
2023/04/21 01:42:21;;;;;;;;;;;;;;;;;;7367387;19;1304;-65
2023/04/21 01:44:50;;;;;;;;;;;;;;;;;;7374503;19;1981;-65
2023/04/21 01:47:18;;;;;;;;;;;;;;;;;;7370096;19;1992;-64
2023/04/21 01:49:47;;;;;;;;;;;;;;;;;;7368279;19;877;-65
2023/04/21 01:52:15;;;;;;;;;;;;;;;;;;7367952;19;1270;-64
2023/04/21 01:54:43;;;;;;;;;;;;;;;;;;7369250;19;826;-64
2023/04/21 01:57:11;;;;;;;;;;;;;;;;;;7372655;19;1962;-64
2023/04/21 01:59:40;;;;;;;;;;;;;;;;;;7369798;19;794;-64
2023/04/21 02:02:09;;;;;;;;;;;;;;;;;;7369677;19;2028;-65
2023/04/21 02:04:37;;;;;;;;;;;;;;;;;;7370073;19;802;-65
2023/04/21 02:07:05;;;;;;;;;;;;;;;;;;7369792;19;2036;-64
2023/04/21 02:09:34;;;;;;;;;;;;;;;;;;7368366;19;852;-64
2023/04/21 02:12:02;;;;;;;;;;;;;;;;;;7368679;19;1262;-64
2023/04/21 02:14:30;;;;;;;;;;;;;;;;;;7369009;19;861;-64
2023/04/21 02:16:58;;;;;;;;;;;;;;;;;;7370509;19;2029;-64
2023/04/21 02:19:27;;;;;;;;;;;;;;;;;;7371638;19;1975;-64
2023/04/21 02:21:56;;;;;;;;;;;;;;;;;;7366968;19;1286;-64
2023/04/21 02:24:24;;;;;;;;;;;;;;;;;;7370011;19;849;-65
2023/04/21 02:26:56;;;;;;;;;;;;;;;;;;7367729;19;2027;-64
2023/04/21 02:29:24;;;;;;;;;;;;;;;;;;7371116;19;2056;-64
2023/04/21 02:31:52;;;;;;;;;;;;;;;;;;7367109;19;1928;-64
2023/04/21 02:34:21;;;;;;;;;;;;;;;;;;7369111;19;830;-64
2023/04/21 02:36:49;;;;;;;;;;;;;;;;;;7370023;19;2200;-64
2023/04/21 02:39:17;;;;;;;;;;;;;;;;;;7366764;19;772;-64
2023/04/21 02:41:45;;;;;;;;;;;;;;;;;;7365449;19;1263;-64
2023/04/21 02:44:13;;;;;;;;;;;;;;;;;;7367927;19;803;-64
2023/04/21 02:46:41;;;;;;;;;;;;;;;;;;7367583;19;1959;-64
2023/04/21 02:49:09;;;;;;;;;;;;;;;;;;7368264;19;818;-64
2023/04/21 02:51:37;;;;;;;;;;;;;;;;;;7368043;19;1333;-64
2023/04/21 02:54:06;;;;;;;;;;;;;;;;;;7369076;19;1974;-64
2023/04/21 02:56:34;;;;;;;;;;;;;;;;;;7369099;19;2002;-64
2023/04/21 02:59:02;;;;;;;;;;;;;;;;;;7366406;19;799;-64
2023/04/21 03:01:30;;;;;;;;;;;;;;;;;;7365847;19;1286;-64
2023/04/21 03:03:58;;;;;;;;;;;;;;;;;;7369416;19;861;-64
2023/04/21 03:06:27;;;;;;;;;;;;;;;;;;7367972;19;2008;-64
2023/04/21 03:08:55;;;;;;;;;;;;;;;;;;7366633;19;859;-63
2023/04/21 03:11:23;;;;;;;;;;;;;;;;;;7367108;19;1365;-64
2023/04/21 03:13:54;;;;;;;;;;;;;;;;;;7367541;19;763;-64
2023/04/21 03:16:23;;;;;;;;;;;;;;;;;;7369179;19;1968;-64
2023/04/21 03:18:51;;;;;;;;;;;;;;;;;;7366318;19;904;-63
2023/04/21 03:21:19;;;;;;;;;;;;;;;;;;7365720;19;1266;-63
2023/04/21 03:23:47;;;;;;;;;;;;;;;;;;7372703;19;2101;-64
2023/04/21 03:26:16;;;;;;;;;;;;;;;;;;7365548;19;2245;-64
2023/04/21 03:28:44;;;;;;;;;;;;;;;;;;7368096;19;852;-64
2023/04/21 03:31:12;;;;;;;;;;;;;;;;;;7366567;19;1278;-63
2023/04/21 03:33:40;;;;;;;;;;;;;;;;;;7367848;19;790;-64
2023/04/21 03:36:08;;;;;;;;;;;;;;;;;;7367302;19;1985;-64
2023/04/21 03:38:36;;;;;;;;;;;;;;;;;;7365257;19;790;-64
2023/04/21 03:41:04;;;;;;;;;;;;;;;;;;7366260;19;1278;-64
2023/04/21 03:43:32;;;;;;;;;;;;;;;;;;7365792;19;861;-64
2023/04/21 03:46:01;;;;;;;;;;;;;;;;;;7367223;19;2013;-63
2023/04/21 03:48:30;;;;;;;;;;;;;;;;;;7366105;19;804;-65
2023/04/21 03:50:58;;;;;;;;;;;;;;;;;;7365086;19;1344;-64
2023/04/21 03:53:26;;;;;;;;;;;;;;;;;;7365788;19;842;-63
2023/04/21 03:55:55;;;;;;;;;;;;;;;;;;7369002;19;1927;-63
2023/04/21 03:58:23;;;;;;;;;;;;;;;;;;7368724;19;2188;-63
2023/04/21 04:00:51;;;;;;;;;;;;;;;;;;7368453;19;1934;-64
2023/04/21 04:03:19;;;;;;;;;;;;;;;;;;7366156;19;783;-63
2023/04/21 04:05:47;;;;;;;;;;;;;;;;;;7369770;19;1972;-64
2023/04/21 04:08:15;;;;;;;;;;;;;;;;;;7365445;19;839;-63
2023/04/21 04:10:43;;;;;;;;;;;;;;;;;;7365184;19;1286;-63
2023/04/21 04:13:11;;;;;;;;;;;;;;;;;;7366463;19;771;-64
2023/04/21 04:15:40;;;;;;;;;;;;;;;;;;7366069;19;2038;-63
2023/04/21 04:18:08;;;;;;;;;;;;;;;;;;7364614;19;1932;-64
2023/04/21 04:20:36;;;;;;;;;;;;;;;;;;7367951;19;2158;-64
2023/04/21 04:23:04;;;;;;;;;;;;;;;;;;7365937;19;799;-64
2023/04/21 04:25:32;;;;;;;;;;;;;;;;;;7365503;19;890;-64
2023/04/21 04:28:00;;;;;;;;;;;;;;;;;;7361557;19;1830;-64
2023/04/21 04:30:31;;;;;;;;;;;;;;;;;;7369397;19;2048;-63
2023/04/21 04:33:00;;;;;;;;;;;;;;;;;;7368515;19;2006;-63
2023/04/21 04:35:28;;;;;;;;;;;;;;;;;;7365413;19;822;-64
2023/04/21 04:37:56;;;;;;;;;;;;;;;;;;7364609;19;793;-64
2023/04/21 04:40:24;;;;;;;;;;;;;;;;;;7369665;19;1907;-63
2023/04/21 04:42:53;;;;;;;;;;;;;;;;;;7365378;19;826;-63
2023/04/21 04:45:22;;;;;;;;;;;;;;;;;;7364837;19;782;-63
2023/04/21 04:47:50;;;;;;;;;;;;;;;;;;7361179;19;1846;-62
2023/04/21 04:50:18;;;;;;;;;;;;;;;;;;7368344;19;2288;-62
2023/04/21 04:52:47;;;;;;;;;;;;;;;;;;7364013;19;865;-63
2023/04/21 04:55:16;;;;;;;;;;;;;;;;;;7364531;19;875;-62
2023/04/21 04:57:44;;;;;;;;;;;;;;;;;;7365455;19;2277;-62
2023/04/21 05:00:13;;;;;;;;;;;;;;;;;;7366963;19;1995;-63
2023/04/21 05:02:41;;;;;;;;;;;;;;;;;;7363012;19;821;-63
2023/04/21 05:05:09;;;;;;;;;;;;;;;;;;7364029;19;889;-64
2023/04/21 05:07:37;;;;;;;;;;;;;;;;;;7362629;19;1846;-64
2023/04/21 05:10:05;;;;;;;;;;;;;;;;;;7367809;19;1966;-64
2023/04/21 05:12:33;;;;;;;;;;;;;;;;;;7364231;19;797;-64
2023/04/21 05:15:02;;;;;;;;;;;;;;;;;;7364109;19;853;-65
2023/04/21 05:17:31;;;;;;;;;;;;;;;;;;7363641;19;790;-63
2023/04/21 05:19:59;;;;;;;;;;;;;;;;;;7365127;19;1961;-63
2023/04/21 05:22:27;;;;;;;;;;;;;;;;;;7361615;19;1969;-63
2023/04/21 05:24:55;;;;;;;;;;;;;;;;;;7367243;19;1227;-65
2023/04/21 05:27:23;;;;;;;;;;;;;;;;;;7361354;19;1842;-64
2023/04/21 05:29:53;;;;;;;;;;;;;;;;;;7365635;19;1960;-63
2023/04/21 05:32:21;;;;;;;;;;;;;;;;;;7365089;19;1994;-65
2023/04/21 05:34:49;;;;;;;;;;;;;;;;;;7366914;19;2341;-64
2023/04/21 05:37:17;;;;;;;;;;;;;;;;;;7363652;19;777;-64
2023/04/21 05:39:46;;;;;;;;;;;;;;;;;;7363060;19;1978;-65
2023/04/21 05:42:14;;;;;;;;;;;;;;;;;;7363676;19;2250;-64
2023/04/21 05:44:42;;;;;;;;;;;;;;;;;;7363272;19;781;-64
2023/04/21 05:47:10;;;;;;;;;;;;;;;;;;7362441;19;1818;-64
2023/04/21 05:49:38;;;;;;;;;;;;;;;;;;7365312;19;2002;-64
2023/04/21 05:52:06;;;;;;;;;;;;;;;;;;7363603;19;2021;-64
2023/04/21 05:54:35;;;;;;;;;;;;;;;;;;7363833;19;891;-64
2023/04/21 05:57:04;;;;;;;;;;;;;;;;;;7362772;19;870;-64
2023/04/21 05:59:32;;;;;;;;;;;;;;;;;;7362897;19;767;-66
2023/04/21 06:02:02;;;;;;;;;;;;;;;;;;7363738;19;1989;-65
2023/04/21 06:04:30;;;;;;;;;;;;;;;;;;7362914;19;806;-65
2023/04/21 06:06:58;;;;;;;;;;;;;;;;;;7361963;19;1818;-63
2023/04/21 06:09:26;;;;;;;;;;;;;;;;;;7362147;19;787;-64
2023/04/21 06:11:56;;;;;;;;;;;;;;;;;;7362036;19;1660;-64
2023/04/21 06:14:24;;;;;;;;;;;;;;;;;;7361288;19;742;-64
2023/04/21 06:16:52;;;;;;;;;;;;;;;;;;7366695;19;806;-63
2023/04/21 06:19:20;;;;;;;;;;;;;;;;;;7367562;19;937;-63
2023/04/21 06:21:49;;;;;;;;;;;;;;;;;;7367191;19;1322;-62
2023/04/21 06:24:23;;;;;;;;;;;;;;;;;;7368839;19;790;-62
2023/04/21 06:26:51;;;;;;;;;;;;;;;;;;7368412;19;1839;-63
2023/04/21 06:29:20;;;;;;;;;;;;;;;;;;7367018;19;866;-62
2023/04/21 06:31:48;;;;;;;;;;;;;;;;;;7367104;19;1365;-63
2023/04/21 06:34:16;;;;;;;;;;;;;;;;;;7368682;19;875;-62
2023/04/21 06:36:44;;;;;;;;;;;;;;;;;;7370821;19;1853;-62
2023/04/21 06:39:12;;;;;;;;;;;;;;;;;;7369602;19;1721;-63
2023/04/21 06:41:40;;;;;;;;;;;;;;;;;;7368821;19;1945;-62
2023/04/21 06:44:12;;;;;;;;;;;;;;;;;;7371146;19;1805;-62
2023/04/21 06:46:40;;;;;;;;;;;;;;;;;;7368035;19;1862;-63
2023/04/21 06:49:09;;;;;;;;;;;;;;;;;;7367208;19;865;-62
2023/04/21 06:51:37;;;;;;;;;;;;;;;;;;7367279;19;1649;-63
2023/04/21 06:54:05;;;;;;;;;;;;;;;;;;7368508;19;785;-64
2023/04/21 06:56:33;;;;;;;;;;;;;;;;;;7367171;19;829;-63
2023/04/21 06:59:01;;;;;;;;;;;;;;;;;;7367315;19;763;-63
2023/04/21 07:01:29;;;;;;;;;;;;;;;;;;7366777;19;2015;-62
2023/04/21 07:03:57;;;;;;;;;;;;;;;;;;7366474;19;830;-63
2023/04/21 07:06:25;;;;;;;;;;;;;;;;;;7367497;19;733;-63
2023/04/21 07:08:54;;;;;;;;;;;;;;;;;;7364934;19;1968;-64
2023/04/21 07:11:22;;;;;;;;;;;;;;;;;;7366040;19;2015;-63
2023/04/21 07:13:50;;;;;;;;;;;;;;;;;;7366553;19;877;-63
2023/04/21 07:16:18;;;;;;;;;;;;;;;;;;7366531;19;813;-63
2023/04/21 07:18:46;;;;;;;;;;;;;;;;;;7366753;19;885;-62
2023/04/21 07:21:14;;;;;;;;;;;;;;;;;;7365716;19;2215;-64
2023/04/21 07:23:42;;;;;;;;;;;;;;;;;;7366590;19;805;-64
2023/04/21 07:26:10;;;;;;;;;;;;;;;;;;7366950;19;857;-63
2023/04/21 07:28:39;;;;;;;;;;;;;;;;;;7364454;19;1839;-65
2023/04/21 07:31:07;;;;;;;;;;;;;;;;;;7365914;19;1659;-64
2023/04/21 07:33:35;;;;;;;;;;;;;;;;;;7369263;19;1757;-64
2023/04/21 07:36:03;;;;;;;;;;;;;;;;;;7364968;19;1732;-63
2023/04/21 07:38:32;;;;;;;;;;;;;;;;;;7366211;19;924;-64
2023/04/21 07:41:00;;;;;;;;;;;;;;;;;;7365917;19;1650;-65
2023/04/21 07:43:29;;;;;;;;;;;;;;;;;;7367390;19;778;-65
2023/04/21 07:45:58;;;;;;;;;;;;;;;;;;7367419;19;961;-62
2023/04/21 07:48:26;;;;;;;;;;;;;;;;;;7363855;19;1948;-64
2023/04/21 07:50:54;;;;;;;;;;;;;;;;;;7365610;19;1337;-65
2023/04/21 07:53:22;;;;;;;;;;;;;;;;;;7366110;19;849;-65
2023/04/21 07:55:50;;;;;;;;;;;;;;;;;;7365016;19;818;-65
2023/04/21 07:58:18;;;;;;;;;;;;;;;;;;7364932;19;845;-65
2023/04/21 08:00:46;;;;;;;;;;;;;;;;;;7364803;19;1317;-64
2023/04/21 08:03:14;;;;;;;;;;;;;;;;;;7366125;19;865;-64
2023/04/21 08:05:43;;;;;;;;;;;;;;;;;;7365782;19;818;-64
2023/04/21 08:08:11;;;;;;;;;;;;;;;;;;7363667;19;1838;-63
2023/04/21 08:10:39;;;;;;;;;;;;;;;;;;7366802;19;2311;-65
2023/04/21 08:13:07;;;;;;;;;;;;;;;;;;7364585;19;849;-64
2023/04/21 08:15:36;;;;;;;;;;;;;;;;;;7367546;19;1829;-64
2023/04/21 08:18:04;;;;;;;;;;;;;;;;;;7368514;19;1800;-64
2023/04/21 08:20:32;;;;;;;;;;;;;;;;;;7366220;19;2151;-64
2023/04/21 08:23:00;;;;;;;;;;;;;;;;;;7365292;19;813;-63
2023/04/21 08:25:28;;;;;;;;;;;;;;;;;;7365557;19;849;-62
2023/04/21 08:27:56;;;;;;;;;;;;;;;;;;7362921;19;1833;-63
2023/04/21 08:30:24;;;;;;;;;;;;;;;;;;7368669;19;1698;-61
2023/04/21 08:32:53;;;;;;;;;;;;;;;;;;7364886;19;692;-61
2023/04/21 08:35:21;;;;;;;;;;;;;;;;;;7368694;19;2277;-62
2023/04/21 08:37:49;;;;;;;;;;;;;;;;;;7362486;19;854;-62
2023/04/21 08:40:17;;;;;;;;;;;;;;;;;;7365483;19;1342;-64
2023/04/21 08:42:45;;;;;;;;;;;;;;;;;;7364727;19;854;-64
2023/04/21 08:45:13;;;;;;;;;;;;;;;;;;7368047;19;2045;-64
2023/04/21 08:47:41;;;;;;;;;;;;;;;;;;7363605;19;1841;-63
2023/04/21 08:50:09;;;;;;;;;;;;;;;;;;7364302;19;1332;-64
2023/04/21 08:52:38;;;;;;;;;;;;;;;;;;7364298;19;775;-63
2023/04/21 08:55:06;;;;;;;;;;;;;;;;;;7366062;19;1977;-65
2023/04/21 08:57:34;;;;;;;;;;;;;;;;;;7363980;19;841;-64
2023/04/21 09:00:02;;;;;;;;;;;;;;;;;;7364202;19;823;-64
2023/04/21 09:02:31;;;;;;;;;;;;;;;;;;7364518;19;871;-64
2023/04/21 09:04:59;;;;;;;;;;;;;;;;;;7366413;19;2011;-64
2023/04/21 09:07:27;;;;;;;;;;;;;;;;;;7363860;19;1838;-63
2023/04/21 09:09:55;;;;;;;;;;;;;;;;;;7363284;19;859;-63
2023/04/21 09:12:23;;;;;;;;;;;;;;;;;;7360827;19;1313;-63
2023/04/21 09:14:52;;;;;;;;;;;;;;;;;;7366144;19;1695;-62
2023/04/21 09:17:20;;;;;;;;;;;;;;;;;;7363516;19;870;-61
2023/04/21 09:19:48;;;;;;;;;;;;;;;;;;7363811;19;853;-62
2023/04/21 09:22:16;;;;;;;;;;;;;;;;;;7362190;19;1787;-62
2023/04/21 09:24:45;;;;;;;;;;;;;;;;;;7368895;19;1929;-62
2023/04/21 09:27:13;;;;;;;;;;;;;;;;;;7367689;19;1838;-62
2023/04/21 09:29:41;;;;;;;;;;;;;;;;;;7363612;19;809;-64
2023/04/21 09:32:10;;;;;;;;;;;;;;;;;;7361973;19;1811;-63
2023/04/21 09:34:38;;;;;;;;;;;;;;;;;;7364746;19;750;-63
2023/04/21 09:37:06;;;;;;;;;;;;;;;;;;7366294;19;1968;-63
2023/04/21 09:39:34;;;;;;;;;;;;;;;;;;7363507;19;861;-65
2023/04/21 09:42:03;;;;;;;;;;;;;;;;;;7360279;19;1276;-64
2023/04/21 09:44:31;;;;;;;;;;;;;;;;;;7365094;19;1937;-63
2023/04/21 09:46:59;;;;;;;;;;;;;;;;;;7362785;19;809;-64
2023/04/21 09:49:27;;;;;;;;;;;;;;;;;;7363551;19;1839;-64
2023/04/21 09:51:55;;;;;;;;;;;;;;;;;;7368004;19;1277;-63
2023/04/21 09:54:24;;;;;;;;;;;;;;;;;;7368643;19;862;-63
2023/04/21 09:56:52;;;;;;;;;;;;;;;;;;7368800;19;790;-63
2023/04/21 09:59:20;;;;;;;;;;;;;;;;;;7367686;19;1940;-64
2023/04/21 10:01:48;;;;;;;;;;;;;;;;;;7367847;19;1277;-64
2023/04/21 10:04:16;;;;;;;;;;;;;;;;;;7369543;19;890;-64
2023/04/21 10:06:44;;;;;;;;;;;;;;;;;;7368935;19;855;-64
2023/04/21 10:09:12;;;;;;;;;;;;;;;;;;7368636;19;1857;-65
2023/04/21 10:11:41;;;;;;;;;;;;;;;;;;7369398;19;1329;-65
2023/04/21 10:14:09;;;;;;;;;;;;;;;;;;7370388;19;872;-65
2023/04/21 10:16:37;;;;;;;;;;;;;;;;;;7370070;19;844;-65
2023/04/21 10:19:05;;;;;;;;;;;;;;;;;;7370360;19;798;-64
2023/04/21 10:21:33;;;;;;;;;;;;;;;;;;7367212;19;1282;-65
2023/04/21 10:24:01;;;;;;;;;;;;;;;;;;7368917;19;844;-65
2023/04/21 10:26:30;;;;;;;;;;;;;;;;;;7369767;19;834;-64
2023/04/21 10:28:59;;;;;;;;;;;;;;;;;;7366613;19;1843;-64
2023/04/21 10:31:28;;;;;;;;;;;;;;;;;;7367605;19;1250;-64
2023/04/21 10:33:56;;;;;;;;;;;;;;;;;;7368242;19;902;-64
2023/04/21 10:36:25;;;;;;;;;;;;;;;;;;7368546;19;760;-65
2023/04/21 10:38:53;;;;;;;;;;;;;;;;;;7368093;19;1860;-65
2023/04/21 10:41:21;;;;;;;;;;;;;;;;;;7371936;19;2008;-63
2023/04/21 10:43:49;;;;;;;;;;;;;;;;;;7371666;19;1547;-64
2023/04/21 10:46:17;;;;;;;;;;;;;;;;;;7372179;19;1706;-63
2023/04/21 10:48:45;;;;;;;;;;;;;;;;;;7368600;19;1846;-64
2023/04/21 10:51:13;;;;;;;;;;;;;;;;;;7367245;19;1242;-64
2023/04/21 10:53:42;;;;;;;;;;;;;;;;;;7370406;19;876;-64
2023/04/21 10:56:10;;;;;;;;;;;;;;;;;;7368129;19;814;-64
2023/04/21 10:58:40;;;;;;;;;;;;;;;;;;7370877;19;1796;-64
2023/04/21 11:01:08;;;;;;;;;;;;;;;;;;7366783;19;1286;-63
2023/04/21 11:03:36;;;;;;;;;;;;;;;;;;7368088;19;802;-64
2023/04/21 11:06:05;;;;;;;;;;;;;;;;;;7369220;19;874;-64
2023/04/21 11:08:33;;;;;;;;;;;;;;;;;;7366755;19;2024;-64
2023/04/21 11:11:01;;;;;;;;;;;;;;;;;;7366017;19;1258;-64
2023/04/21 11:13:33;;;;;;;;;;;;;;;;;;7368086;19;856;-64
2023/04/21 11:16:03;;;;;;;;;;;;;;;;;;7367865;19;691;-64
2023/04/21 11:18:31;;;;;;;;;;;;;;;;;;7367108;19;1931;-64
2023/04/21 11:20:59;;;;;;;;;;;;;;;;;;7367157;19;1730;-64
2023/04/21 11:23:27;;;;;;;;;;;;;;;;;;7367008;19;814;-64
2023/04/21 11:25:55;;;;;;;;;;;;;;;;;;7367296;19;882;-65
2023/04/21 11:28:23;;;;;;;;;;;;;;;;;;7366257;19;1838;-64
2023/04/21 11:30:52;;;;;;;;;;;;;;;;;;7369240;19;1807;-64
2023/04/21 11:33:20;;;;;;;;;;;;;;;;;;7366443;19;829;-64
2023/04/21 11:35:50;;;;;;;;;;;;;;;;;;7366247;19;831;-63
2023/04/21 11:38:18;;;;;;;;;;;;;;;;;;7365218;19;1936;-64
2023/04/21 11:40:46;;;;;;;;;;;;;;;;;;7364568;19;1328;-63
2023/04/21 11:43:14;;;;;;;;;;;;;;;;;;7370733;19;1947;-62
2023/04/21 11:45:43;;;;;;;;;;;;;;;;;;7367630;19;2091;-63
2023/04/21 11:48:11;;;;;;;;;;;;;;;;;;7366313;19;1845;-60
2023/04/21 11:50:39;;;;;;;;;;;;;;;;;;7366315;19;1290;-59
2023/04/21 11:53:07;;;;;;;;;;;;;;;;;;7366584;19;805;-61
2023/04/21 11:55:35;;;;;;;;;;;;;;;;;;7371322;19;1724;-64
2023/04/21 11:58:04;;;;;;;;;;;;;;;;;;7367594;19;841;-64
2023/04/21 12:00:32;;;;;;;;;;;;;;;;;;7367232;19;1379;-62
2023/04/21 12:03:01;;;;;;;;;;;;;;;;;;7369206;19;859;-64
2023/04/21 12:05:29;;;;;;;;;;;;;;;;;;7367201;19;813;-61
2023/04/21 12:07:57;;;;;;;;;;;;;;;;;;7366056;19;1987;-61
2023/04/21 12:10:25;;;;;;;;;;;;;;;;;;7362644;19;1853;-62
2023/04/21 12:12:53;;;;;;;;;;;;;;;;;;7366118;19;1690;-62
2023/04/21 12:15:22;;;;;;;;;;;;;;;;;;7365866;19;892;-62
2023/04/21 12:17:50;;;;;;;;;;;;;;;;;;7366639;19;1958;-62
2023/04/21 12:20:18;;;;;;;;;;;;;;;;;;7364855;19;1279;-61
2023/04/21 12:22:47;;;;;;;;;;;;;;;;;;7365369;19;892;-63
2023/04/21 12:25:15;;;;;;;;;;;;;;;;;;7366382;19;857;-64
2023/04/21 12:27:43;;;;;;;;;;;;;;;;;;7365082;19;852;-63
2023/04/21 12:30:11;;;;;;;;;;;;;;;;;;7365426;19;2010;-62
2023/04/21 12:32:39;;;;;;;;;;;;;;;;;;7369747;19;1963;-64
2023/04/21 12:35:07;;;;;;;;;;;;;;;;;;7365606;19;751;-62
2023/04/21 12:37:36;;;;;;;;;;;;;;;;;;7365486;19;747;-63
2023/04/21 12:40:04;;;;;;;;;;;;;;;;;;7369844;19;1972;-63
2023/04/21 12:42:32;;;;;;;;;;;;;;;;;;7368840;19;1962;-62
2023/04/21 12:45:00;;;;;;;;;;;;;;;;;;7366811;19;1960;-62
2023/04/21 12:47:29;;;;;;;;;;;;;;;;;;7365755;19;763;-64
2023/04/21 12:49:57;;;;;;;;;;;;;;;;;;7363064;19;1855;-64
2023/04/21 12:52:25;;;;;;;;;;;;;;;;;;7362809;19;1702;-64
2023/04/21 12:54:53;;;;;;;;;;;;;;;;;;7364933;19;836;-63
2023/04/21 12:57:21;;;;;;;;;;;;;;;;;;7364017;19;807;-62
2023/04/21 12:59:50;;;;;;;;;;;;;;;;;;7364495;19;817;-63
2023/04/21 13:02:18;;;;;;;;;;;;;;;;;;7361911;19;1333;-64
2023/04/21 13:04:46;;;;;;;;;;;;;;;;;;7365240;19;1922;-64
2023/04/21 13:07:14;;;;;;;;;;;;;;;;;;7364409;19;809;-64
2023/04/21 13:09:43;;;;;;;;;;;;;;;;;;7361592;19;1842;-63
2023/04/21 13:12:11;;;;;;;;;;;;;;;;;;7360907;19;1274;-63
2023/04/21 13:14:39;;;;;;;;;;;;;;;;;;7364927;19;911;-64
2023/04/21 13:17:07;;;;;;;;;;;;;;;;;;7366192;19;2013;-65
2023/04/21 13:19:35;;;;;;;;;;;;;;;;;;7362077;19;811;-63
2023/04/21 13:22:03;;;;;;;;;;;;;;;;;;7362216;19;1275;-64
2023/04/21 13:24:32;;;;;;;;;;;;;;;;;;7365060;19;874;-62
2023/04/21 13:27:00;;;;;;;;;;;;;;;;;;7364250;19;1368;-64
2023/04/21 13:29:32;;;;;;;;;;;;;;;;;;7365082;19;1866;-65
2023/04/21 13:32:00;;;;;;;;;;;;;;;;;;7361960;19;1968;-66
2023/04/21 13:34:29;;;;;;;;;;;;;;;;;;7364289;19;2006;-65
2023/04/21 13:36:57;;;;;;;;;;;;;;;;;;7363699;19;2056;-65
2023/04/21 13:39:25;;;;;;;;;;;;;;;;;;7365708;19;1961;-64
2023/04/21 13:41:53;;;;;;;;;;;;;;;;;;7361462;19;1316;-64
2023/04/21 13:44:22;;;;;;;;;;;;;;;;;;7365626;19;1545;-65
2023/04/21 13:46:50;;;;;;;;;;;;;;;;;;7364984;19;1543;-65
2023/04/21 13:49:19;;;;;;;;;;;;;;;;;;7359694;19;1849;-64
2023/04/21 13:51:47;;;;;;;;;;;;;;;;;;7360431;19;1262;-65
2023/04/21 13:54:15;;;;;;;;;;;;;;;;;;7366004;19;1874;-64
2023/04/21 13:56:43;;;;;;;;;;;;;;;;;;7364413;19;1658;-65
2023/04/21 13:59:13;;;;;;;;;;;;;;;;;;7362403;19;775;-65
2023/04/21 14:01:41;;;;;;;;;;;;;;;;;;7365409;19;1619;-65
2023/04/21 14:04:09;;;;;;;;;;;;;;;;;;7363764;19;1504;-65
2023/04/21 14:06:38;;;;;;;;;;;;;;;;;;7361960;19;846;-64
2023/04/21 14:09:08;;;;;;;;;;;;;;;;;;7361204;19;1814;-65
2023/04/21 14:11:36;;;;;;;;;;;;;;;;;;7360429;19;1336;-65
2023/04/21 14:14:04;;;;;;;;;;;;;;;;;;7364780;19;1584;-65
2023/04/21 14:16:32;;;;;;;;;;;;;;;;;;7361390;19;808;-64
2023/04/21 14:19:00;;;;;;;;;;;;;;;;;;7361857;19;1514;-65
2023/04/21 14:21:28;;;;;;;;;;;;;;;;;;7360714;19;1310;-65
2023/04/21 14:23:57;;;;;;;;;;;;;;;;;;7360178;19;880;-65
2023/04/21 14:26:25;;;;;;;;;;;;;;;;;;7361083;19;802;-65
2023/04/21 14:28:53;;;;;;;;;;;;;;;;;;7361278;19;1842;-65
2023/04/21 14:31:21;;;;;;;;;;;;;;;;;;7360809;19;1280;-65
2023/04/21 14:33:49;;;;;;;;;;;;;;;;;;7361487;19;872;-65
2023/04/21 14:36:17;;;;;;;;;;;;;;;;;;7362903;19;758;-65
2023/04/21 14:38:45;;;;;;;;;;;;;;;;;;7368214;19;873;-64
2023/04/21 14:41:13;;;;;;;;;;;;;;;;;;7367665;19;1345;-64
2023/04/21 14:43:42;;;;;;;;;;;;;;;;;;7367976;19;879;-64
2023/04/21 14:46:10;;;;;;;;;;;;;;;;;;7368023;19;865;-64
2023/04/21 14:48:38;;;;;;;;;;;;;;;;;;7368797;19;1548;-65
2023/04/21 14:51:08;;;;;;;;;;;;;;;;;;7365974;19;1846;-65
2023/04/21 14:53:36;;;;;;;;;;;;;;;;;;7368618;19;885;-65
2023/04/21 14:56:04;;;;;;;;;;;;;;;;;;7367413;19;799;-65
2023/04/21 14:58:32;;;;;;;;;;;;;;;;;;7367636;19;821;-65
2023/04/21 15:01:00;;;;;;;;;;;;;;;;;;7367013;19;1312;-65
2023/04/21 15:03:29;;;;;;;;;;;;;;;;;;7367207;19;857;-65
2023/04/21 15:05:57;;;;;;;;;;;;;;;;;;7367091;19;856;-66
2023/04/21 15:08:26;;;;;;;;;;;;;;;;;;7367669;19;826;-65
2023/04/21 15:10:55;;;;;;;;;;;;;;;;;;7365430;19;1885;-65
2023/04/21 15:13:23;;;;;;;;;;;;;;;;;;7366677;19;817;-65
2023/04/21 15:15:51;;;;;;;;;;;;;;;;;;7367441;19;882;-65
2023/04/21 15:18:19;;;;;;;;;;;;;;;;;;7367745;19;870;-65
2023/04/21 15:20:47;;;;;;;;;;;;;;;;;;7366828;19;1266;-65
2023/04/21 15:23:16;;;;;;;;;;;;;;;;;;7367149;19;826;-66
2023/04/21 15:25:44;;;;;;;;;;;;;;;;;;7367107;19;860;-65
2023/04/21 15:28:12;;;;;;;;;;;;;;;;;;7366953;19;818;-66
2023/04/21 15:30:40;;;;;;;;;;;;;;;;;;7365900;19;1863;-65
2023/04/21 15:33:10;;;;;;;;;;;;;;;;;;7371420;19;1817;-65
2023/04/21 15:35:38;;;;;;;;;;;;;;;;;;7370975;19;1797;-65
2023/04/21 15:38:07;;;;;;;;;;;;;;;;;;7367543;19;1546;-64
2023/04/21 15:40:35;;;;;;;;;;;;;;;;;;7366571;19;1309;-64
2023/04/21 15:43:03;;;;;;;;;;;;;;;;;;7367296;19;857;-64
2023/04/21 15:45:31;;;;;;;;;;;;;;;;;;7369333;19;1594;-63
2023/04/21 15:47:59;;;;;;;;;;;;;;;;;;7369734;19;1598;-64
2023/04/21 15:50:30;;;;;;;;;;;;;;;;;;7368240;19;1850;-64
2023/04/21 15:52:58;;;;;;;;;;;;;;;;;;7369090;19;846;-65
2023/04/21 15:55:26;;;;;;;;;;;;;;;;;;7372888;19;2012;-66
2023/04/21 15:57:54;;;;;;;;;;;;;;;;;;7370779;19;1816;-65
2023/04/21 16:00:23;;;;;;;;;;;;;;;;;;7369415;19;1326;-65
2023/04/21 16:02:51;;;;;;;;;;;;;;;;;;7371827;19;1690;-66
2023/04/21 16:05:19;;;;;;;;;;;;;;;;;;7368436;19;710;-66
2023/04/21 16:07:48;;;;;;;;;;;;;;;;;;7369863;19;1812;-65
2023/04/21 16:10:16;;;;;;;;;;;;;;;;;;7368049;19;1842;-66
2023/04/21 16:12:49;;;;;;;;;;;;;;;;;;7369311;19;877;-65
2023/04/21 16:15:17;;;;;;;;;;;;;;;;;;7368732;19;766;-66
2023/04/21 16:17:45;;;;;;;;;;;;;;;;;;7369759;19;1680;-66
2023/04/21 16:20:13;;;;;;;;;;;;;;;;;;7366985;19;1262;-66
2023/04/21 16:22:42;;;;;;;;;;;;;;;;;;7366450;19;735;-65
2023/04/21 16:25:11;;;;;;;;;;;;;;;;;;7365695;19;1830;-65
2023/04/21 16:27:39;;;;;;;;;;;;;;;;;;7366023;19;1750;-65
2023/04/21 16:30:07;;;;;;;;;;;;;;;;;;7366219;19;2015;-65
2023/04/21 16:32:36;;;;;;;;;;;;;;;;;;7365903;19;781;-64
2023/04/21 16:35:06;;;;;;;;;;;;;;;;;;7363840;19;814;-65
2023/04/21 16:37:35;;;;;;;;;;;;;;;;;;7366119;19;1822;-65
2023/04/21 16:40:04;;;;;;;;;;;;;;;;;;7369360;19;1728;-66
2023/04/21 16:42:32;;;;;;;;;;;;;;;;;;7365320;19;1826;-65
2023/04/21 16:45:02;;;;;;;;;;;;;;;;;;7368398;19;1552;-65
2023/04/21 16:47:31;;;;;;;;;;;;;;;;;;7364964;19;822;-66
2023/04/21 16:49:59;;;;;;;;;;;;;;;;;;7363358;19;1822;-65
2023/04/21 16:52:27;;;;;;;;;;;;;;;;;;7362072;19;1310;-66
2023/04/21 16:54:55;;;;;;;;;;;;;;;;;;7367415;19;1790;-65
2023/04/21 16:57:24;;;;;;;;;;;;;;;;;;7364338;19;892;-66
2023/04/21 16:59:52;;;;;;;;;;;;;;;;;;7363529;19;802;-65
2023/04/21 17:02:20;;;;;;;;;;;;;;;;;;7361975;19;1316;-66
2023/04/21 17:04:48;;;;;;;;;;;;;;;;;;7367170;19;2013;-66
2023/04/21 17:07:16;;;;;;;;;;;;;;;;;;7364485;19;928;-65
2023/04/21 17:09:44;;;;;;;;;;;;;;;;;;7363550;19;1842;-65
2023/04/21 17:12:13;;;;;;;;;;;;;;;;;;7362362;19;1329;-65
2023/04/21 17:14:41;;;;;;;;;;;;;;;;;;7368662;19;1842;-66
2023/04/21 17:17:09;;;;;;;;;;;;;;;;;;7363709;19;839;-66